Hovedside
METAR-TAF:

METAR-TAF

Lufthavner :

Vardø, Norge

Vardø lufthavn

breddegrad: 70-21N, lengdegrad: 031-03E, høyde over havet: 12 m

Gjeldene værobservasjon

Denne rapporten ble laget for 2 timer og 17 minutter siden, klokken 08:50 UTC
Vind 18 kt fra Nordøst
Temperatur 1°C
Luftfuktighet 69%
Trykk 1009 hPa
Sikt 10 km eller mer
Brutte skyer i en høyde av 3400 ft

METAR: ENSS 270850Z 05018KT 9999 BKN034 01/M04 Q1009 RMK WIND 500FT /////KT

Tid: 13:07 (11:07 UTC)


TAF: fraværende

Værobservasjoner og værvarsel for over 4000 flyplasser (METAR- og TAF-rapporter).

Tilgjengelige stasjoner er representert av de røde og gule prikkene på kartet.

Hold musepekeren over prikken for å se navnet på stasjonen.

Klikk så for å se værobservasjoner og -varsler.

For å forandre kartet kan du klikke på den grønne knappen med svart kryss for å zoome inn, på den grønne knappen med strek for å zoome ut, eller på de grønne pilene for å se tilstøtende kart.


METAR-TAF: